Etusivu
METAR-TAF:

METAR-TAF

Lentoasemat :

Albenga, Italia

Leveyspiiri: 44-03N, Pituuspiiri: 008-07E, korkeus merenpinnasta: 45 m

Tämänhetkinen sää

Tämä raportti tehtiin 13 tuntia ja 0 minuuttia sitten, kello 16.50 UTC
Tuuli 3 kn lännestä/lounaasta, vaihdellen lounaan ja luoteen välillä
Lämpötila 8°C
Kosteus 93%
Ilmanpaine 1023 hPa
Näkyvyys 10 km tai enemmän
ei pilviä alle 1500 m:ssä eikä cumulonimbus-pilviä

METAR: LIMG 181650Z 25003KT 230V310 CAVOK 08/07 Q1023

Aika: 06:50 (05:50 UTC)


TAF: puuttuu

Säähavainnot ja -ennusteet yli 4000 lentoasemalta (METAR- ja TAF-raportit).

Käytössä olevat sääasemat on merkitty karttaan keltaisilla ja punaisilla pisteillä.

Aseta hiiri pisteen päälle nähdäksesi sääaseman nimen.

Klikkaa sitten nähdäksesi säähavainnot ja -ennusteet.

Kartan vaihtaminen: klikkaa mustalla rastilla varustettuja vihreitä pisteitä, niin voit zoomata sisään; viivalla varustettua vihreää pistettä, niin voit zoomata ulos tai vihreitä nuolia, niin pääset viereisille kartoille.


METAR-TAF: